createdAt,value
2018-06-30T00:01:07.884Z,20.99
2018-06-30T00:02:07.910Z,21.04
2018-06-30T00:04:00.850Z,20.99
2018-06-30T00:05:00.847Z,21.06
2018-06-30T00:06:53.762Z,21.01
2018-06-30T00:07:53.784Z,21.03
2018-06-30T00:09:46.718Z,21.01
2018-06-30T00:10:46.723Z,21.01
2018-06-30T00:12:39.658Z,20.98
2018-06-30T00:13:39.660Z,20.91
2018-06-30T00:15:32.581Z,20.92
2018-06-30T00:16:32.600Z,20.92
2018-06-30T00:18:25.535Z,20.88
2018-06-30T00:19:25.540Z,20.91
2018-06-30T00:21:18.447Z,20.98
2018-06-30T00:22:18.471Z,20.91
2018-06-30T00:24:11.407Z,20.85
2018-06-30T00:25:11.483Z,20.89
2018-06-30T00:27:04.327Z,20.91
2018-06-30T00:28:04.433Z,20.84
2018-06-30T00:29:57.325Z,20.85
2018-06-30T00:30:57.300Z,20.85
2018-06-30T00:32:50.239Z,20.73
2018-06-30T00:33:50.246Z,20.79
2018-06-30T00:35:43.162Z,20.77
2018-06-30T00:36:43.188Z,20.74
2018-06-30T00:38:36.187Z,20.74
2018-06-30T00:39:36.134Z,20.72
2018-06-30T00:41:29.048Z,20.69
2018-06-30T00:42:29.077Z,20.70
2018-06-30T00:44:22.009Z,20.76
2018-06-30T00:45:22.012Z,20.61
2018-06-30T00:47:14.923Z,20.55
2018-06-30T00:48:14.945Z,20.55
2018-06-30T00:50:07.882Z,20.64
2018-06-30T00:51:07.883Z,20.62
2018-06-30T00:53:00.833Z,20.54
2018-06-30T00:54:00.819Z,20.61
2018-06-30T00:55:53.735Z,20.55
2018-06-30T00:56:53.766Z,20.52
2018-06-30T00:58:46.695Z,20.55
2018-06-30T00:59:46.703Z,20.55
2018-06-30T01:01:39.612Z,20.59
2018-06-30T01:02:39.636Z,20.59
2018-06-30T01:04:32.575Z,20.51
2018-06-30T01:05:32.574Z,20.43
2018-06-30T01:07:25.488Z,20.48
2018-06-30T01:08:25.511Z,20.54
2018-06-30T01:10:18.443Z,20.55
2018-06-30T01:11:18.449Z,20.57
2018-06-30T01:13:11.393Z,20.62
2018-06-30T01:14:11.386Z,20.55
2018-06-30T01:16:04.301Z,20.52
2018-06-30T01:17:04.324Z,20.61
2018-06-30T01:18:57.259Z,20.58
2018-06-30T01:19:57.263Z,20.57
2018-06-30T01:21:50.175Z,20.61
2018-06-30T01:22:50.200Z,20.52
2018-06-30T01:24:43.133Z,20.55
2018-06-30T01:25:43.136Z,20.50
2018-06-30T01:27:36.049Z,20.59
2018-06-30T01:28:36.084Z,20.52
2018-06-30T01:30:29.007Z,20.50
2018-06-30T01:31:29.010Z,20.58
2018-06-30T01:33:21.927Z,20.57
2018-06-30T01:34:21.946Z,20.50
2018-06-30T01:36:14.881Z,20.54
2018-06-30T01:37:14.880Z,20.51
2018-06-30T01:39:07.815Z,20.48
2018-06-30T01:40:07.818Z,20.43
2018-06-30T01:42:00.757Z,20.48
2018-06-30T01:43:00.760Z,20.42
2018-06-30T01:44:53.696Z,20.41
2018-06-30T01:45:53.695Z,20.41
2018-06-30T01:47:46.610Z,20.39
2018-06-30T01:48:46.634Z,20.35
2018-06-30T01:50:39.569Z,20.31
2018-06-30T01:51:39.570Z,20.31
2018-06-30T01:53:32.485Z,20.28
2018-06-30T01:54:32.507Z,20.26
2018-06-30T01:56:25.441Z,20.24
2018-06-30T01:57:25.443Z,20.16
2018-06-30T01:59:18.379Z,20.16
2018-06-30T02:00:18.382Z,20.28
2018-06-30T02:02:11.300Z,20.16
2018-06-30T02:03:11.325Z,20.10
2018-06-30T02:05:04.253Z,20.11
2018-06-30T02:06:04.257Z,20.14
2018-06-30T02:07:57.173Z,20.16
2018-06-30T02:08:57.200Z,20.14
2018-06-30T02:10:50.154Z,20.03
2018-06-30T02:11:50.132Z,20.06
2018-06-30T02:13:43.052Z,20.05
2018-06-30T02:14:43.077Z,19.99
2018-06-30T02:16:36.012Z,19.99
2018-06-30T02:17:36.006Z,20.01
2018-06-30T02:19:28.921Z,19.95
2018-06-30T02:20:28.950Z,19.91
2018-06-30T02:22:21.877Z,19.87
2018-06-30T02:23:21.883Z,19.81
2018-06-30T02:25:14.815Z,19.76
2018-06-30T02:26:14.826Z,19.73
2018-06-30T02:28:07.733Z,19.73
2018-06-30T02:29:07.753Z,19.74
2018-06-30T02:31:00.686Z,19.74
2018-06-30T02:32:00.690Z,19.71
2018-06-30T02:33:53.606Z,19.74
2018-06-30T02:34:53.634Z,19.78
2018-06-30T02:36:46.572Z,19.74
2018-06-30T02:37:46.566Z,19.73
2018-06-30T02:39:39.481Z,19.69
2018-06-30T02:40:39.504Z,19.71
2018-06-30T02:42:32.453Z,19.62
2018-06-30T02:43:32.448Z,19.63
2018-06-30T02:45:25.359Z,19.54
2018-06-30T02:46:25.381Z,19.58
2018-06-30T02:48:18.328Z,19.56
2018-06-30T02:49:18.314Z,19.58
2018-06-30T02:51:11.267Z,19.59
2018-06-30T02:52:11.270Z,19.58
2018-06-30T02:54:04.182Z,19.58
2018-06-30T02:55:04.225Z,19.55
2018-06-30T02:56:57.149Z,19.59
2018-06-30T02:57:57.148Z,19.51
2018-06-30T02:59:50.057Z,19.58
2018-06-30T03:00:50.080Z,19.62
2018-06-30T03:02:43.022Z,19.47
2018-06-30T03:03:43.025Z,19.55
2018-06-30T03:05:35.948Z,19.56
2018-06-30T03:06:35.952Z,19.51
2018-06-30T03:08:28.890Z,19.50
2018-06-30T03:09:28.888Z,19.54
2018-06-30T03:11:21.801Z,19.54
2018-06-30T03:12:21.825Z,19.55
2018-06-30T03:14:14.759Z,19.55
2018-06-30T03:15:14.764Z,19.54
2018-06-30T03:17:07.694Z,19.50
2018-06-30T03:18:07.697Z,19.55
2018-06-30T03:20:00.609Z,19.62
2018-06-30T03:21:00.630Z,19.61
2018-06-30T03:22:53.567Z,19.61
2018-06-30T03:23:53.566Z,19.61
2018-06-30T03:25:46.479Z,19.56
2018-06-30T03:26:46.502Z,19.55
2018-06-30T03:28:39.436Z,19.61
2018-06-30T03:29:39.435Z,19.55
2018-06-30T03:31:32.360Z,19.55
2018-06-30T03:32:32.371Z,19.56
2018-06-30T03:34:25.331Z,19.55
2018-06-30T03:35:25.306Z,19.54
2018-06-30T03:37:18.215Z,19.59
2018-06-30T03:38:18.251Z,19.58
2018-06-30T03:40:11.171Z,19.61
2018-06-30T03:41:11.175Z,19.55
2018-06-30T03:43:04.105Z,19.55
2018-06-30T03:44:04.109Z,19.56
2018-06-30T03:45:57.024Z,19.58
2018-06-30T03:46:57.044Z,19.63
2018-06-30T03:48:49.977Z,19.94
2018-06-30T03:49:49.981Z,20.16
2018-06-30T03:51:42.896Z,20.69
2018-06-30T03:52:42.917Z,20.95
2018-06-30T03:54:35.851Z,21.58
2018-06-30T03:55:35.858Z,21.88
2018-06-30T03:57:28.771Z,22.37
2018-06-30T03:58:28.792Z,22.65
2018-06-30T04:00:21.727Z,23.09
2018-06-30T04:01:21.727Z,23.25
2018-06-30T04:03:14.646Z,23.70
2018-06-30T04:04:14.712Z,23.93
2018-06-30T04:06:07.605Z,24.45
2018-06-30T04:07:07.611Z,24.60
2018-06-30T04:09:00.545Z,24.91
2018-06-30T04:10:00.555Z,25.14
2018-06-30T04:11:53.473Z,25.36
2018-06-30T04:12:53.496Z,25.40
2018-06-30T04:14:46.433Z,25.54
2018-06-30T04:15:46.435Z,25.55
2018-06-30T04:17:39.356Z,25.72
2018-06-30T04:18:39.386Z,25.87
2018-06-30T04:20:32.330Z,25.98
2018-06-30T04:21:32.337Z,26.05
2018-06-30T04:23:25.258Z,26.09
2018-06-30T04:24:25.286Z,26.29
2018-06-30T04:26:18.226Z,26.26
2018-06-30T04:27:18.235Z,26.32
2018-06-30T04:29:11.174Z,26.21
2018-06-30T04:30:11.181Z,26.29
2018-06-30T04:32:04.104Z,26.32
2018-06-30T04:33:04.132Z,26.36
2018-06-30T04:34:57.082Z,26.25
2018-06-30T04:35:57.084Z,26.28
2018-06-30T04:37:50.005Z,26.09
2018-06-30T04:38:50.034Z,26.07
2018-06-30T04:40:42.982Z,25.98
2018-06-30T04:41:42.986Z,26.13
2018-06-30T04:43:35.910Z,26.13
2018-06-30T04:44:35.941Z,26.12
2018-06-30T04:46:28.917Z,26.23
2018-06-30T04:47:28.892Z,26.25
2018-06-30T04:49:21.821Z,26.39
2018-06-30T04:50:21.849Z,26.48
2018-06-30T04:52:14.795Z,26.50
2018-06-30T04:53:14.804Z,26.33
2018-06-30T04:55:07.755Z,26.75
2018-06-30T04:56:07.758Z,26.97
2018-06-30T04:58:00.682Z,27.54
2018-06-30T04:59:00.710Z,27.74
2018-06-30T05:00:53.663Z,28.11
2018-06-30T05:01:53.668Z,28.22
2018-06-30T05:03:46.593Z,28.61
2018-06-30T05:04:46.622Z,28.74
2018-06-30T05:06:39.574Z,28.14
2018-06-30T05:07:39.582Z,28.06
2018-06-30T05:09:32.504Z,27.99
2018-06-30T05:10:32.533Z,27.87
2018-06-30T05:12:25.477Z,27.78
2018-06-30T05:13:25.486Z,27.84
2018-06-30T05:15:18.412Z,27.82
2018-06-30T05:16:18.442Z,27.66
2018-06-30T05:18:11.393Z,27.22
2018-06-30T05:19:11.400Z,27.27
2018-06-30T05:21:04.351Z,27.04
2018-06-30T05:22:04.353Z,26.89
2018-06-30T05:23:57.282Z,26.33
2018-06-30T05:24:57.313Z,26.15
2018-06-30T05:26:50.259Z,26.05
2018-06-30T05:27:50.273Z,25.73
2018-06-30T05:29:43.195Z,25.85
2018-06-30T05:30:43.223Z,26.07
2018-06-30T05:32:36.177Z,26.32
2018-06-30T05:33:36.268Z,26.60
2018-06-30T05:35:29.109Z,26.60
2018-06-30T05:36:29.181Z,26.60
2018-06-30T05:38:22.092Z,26.67
2018-06-30T05:39:22.099Z,26.47
2018-06-30T05:41:15.098Z,26.30
2018-06-30T05:42:15.067Z,26.25
2018-06-30T05:44:08.014Z,26.30
2018-06-30T05:45:08.016Z,26.28
2018-06-30T05:47:00.969Z,25.98
2018-06-30T05:48:00.973Z,25.97
2018-06-30T05:49:53.901Z,26.29
2018-06-30T05:50:53.933Z,26.12
2018-06-30T05:52:46.885Z,25.91
2018-06-30T05:53:46.894Z,25.79
2018-06-30T05:55:39.818Z,25.92
2018-06-30T05:56:39.849Z,26.12
2018-06-30T05:58:32.805Z,26.28
2018-06-30T05:59:32.809Z,26.26
2018-06-30T06:01:25.736Z,26.30
2018-06-30T06:02:25.766Z,26.36
2018-06-30T06:04:18.722Z,26.57
2018-06-30T06:05:18.727Z,26.67
2018-06-30T06:07:11.656Z,26.60
2018-06-30T06:08:11.686Z,26.65
2018-06-30T06:10:04.678Z,26.48
2018-06-30T06:11:04.648Z,26.37
2018-06-30T06:12:57.606Z,26.40
2018-06-30T06:13:57.611Z,26.35
2018-06-30T06:15:50.538Z,25.77
2018-06-30T06:16:50.568Z,25.80
2018-06-30T06:18:43.517Z,25.91
2018-06-30T06:19:43.528Z,25.79
2018-06-30T06:21:36.459Z,25.77
2018-06-30T06:22:36.490Z,25.95
2018-06-30T06:24:29.444Z,26.21
2018-06-30T06:25:29.515Z,26.36
2018-06-30T06:27:22.411Z,26.57
2018-06-30T06:28:22.412Z,26.57
2018-06-30T06:30:15.369Z,26.58
2018-06-30T06:31:15.373Z,26.43
2018-06-30T06:33:08.304Z,26.48
2018-06-30T06:34:08.337Z,26.55
2018-06-30T06:36:01.473Z,26.72
2018-06-30T06:37:01.487Z,26.52
2018-06-30T06:38:54.448Z,26.36
2018-06-30T06:39:54.449Z,26.30
2018-06-30T06:41:47.451Z,26.12
2018-06-30T06:42:47.413Z,26.29
2018-06-30T06:44:40.369Z,26.09
2018-06-30T06:45:40.381Z,26.09
2018-06-30T06:47:33.313Z,26.39
2018-06-30T06:48:33.345Z,26.66
2018-06-30T06:50:26.300Z,26.82
2018-06-30T06:51:26.309Z,26.92
2018-06-30T06:53:19.240Z,26.94
2018-06-30T06:54:19.273Z,26.85
2018-06-30T06:56:12.232Z,26.77
2018-06-30T06:57:12.241Z,26.92
2018-06-30T06:59:05.179Z,26.97
2018-06-30T07:00:05.208Z,26.95
2018-06-30T07:01:58.170Z,27.12
2018-06-30T07:02:58.201Z,26.99
2018-06-30T07:04:51.139Z,27.13
2018-06-30T07:05:51.252Z,27.22
2018-06-30T07:07:44.257Z,27.04
2018-06-30T07:08:44.290Z,27.19
2018-06-30T07:10:37.249Z,27.31
2018-06-30T07:11:37.265Z,27.43
2018-06-30T07:13:30.198Z,27.10
2018-06-30T07:14:30.233Z,27.19
2018-06-30T07:16:23.192Z,27.07
2018-06-30T07:17:23.204Z,27.14
2018-06-30T07:19:16.145Z,27.21
2018-06-30T07:20:16.257Z,27.37
2018-06-30T07:22:09.135Z,27.49
2018-06-30T07:23:09.148Z,27.54
2018-06-30T07:25:02.083Z,27.57
2018-06-30T07:26:02.117Z,27.72
2018-06-30T07:27:55.078Z,27.97
2018-06-30T07:28:55.092Z,27.82
2018-06-30T07:30:48.109Z,27.54
2018-06-30T07:31:48.071Z,27.39
2018-06-30T07:33:41.002Z,26.69
2018-06-30T07:34:41.034Z,26.44
2018-06-30T07:36:33.995Z,26.21
2018-06-30T07:37:34.045Z,26.13
2018-06-30T07:39:26.935Z,26.02
2018-06-30T07:40:26.963Z,25.94
2018-06-30T07:42:19.924Z,25.90
2018-06-30T07:43:20.082Z,25.83
2018-06-30T07:45:12.860Z,25.64
2018-06-30T07:46:12.888Z,25.57
2018-06-30T07:48:05.839Z,25.30
2018-06-30T07:49:05.843Z,25.39
2018-06-30T07:50:58.786Z,25.51
2018-06-30T07:51:58.795Z,25.46
2018-06-30T07:53:51.720Z,25.38
2018-06-30T07:54:51.747Z,25.33
2018-06-30T07:56:44.692Z,25.03
2018-06-30T07:57:44.699Z,24.90
2018-06-30T07:59:37.625Z,24.71
2018-06-30T08:00:37.650Z,24.69
2018-06-30T08:02:30.590Z,24.93
2018-06-30T08:03:30.600Z,24.85
2018-06-30T08:05:23.519Z,24.76
2018-06-30T08:06:23.546Z,24.76
2018-06-30T08:08:16.502Z,24.88
2018-06-30T08:09:16.508Z,24.88
2018-06-30T08:11:09.427Z,24.80
2018-06-30T08:12:09.459Z,24.71
2018-06-30T08:14:02.406Z,24.73
2018-06-30T08:15:02.405Z,24.73
2018-06-30T08:16:55.849Z,25.03
2018-06-30T08:17:55.854Z,25.17
2018-06-30T08:19:48.775Z,25.08
2018-06-30T08:20:48.802Z,24.90
2018-06-30T08:22:41.751Z,24.71
2018-06-30T08:23:41.750Z,24.91
2018-06-30T08:25:34.672Z,25.15
2018-06-30T08:26:34.700Z,25.18
2018-06-30T08:28:27.647Z,24.93
2018-06-30T08:29:27.685Z,24.77
2018-06-30T08:31:20.578Z,24.55
2018-06-30T08:32:20.603Z,24.42
2018-06-30T08:34:13.552Z,24.50
2018-06-30T08:35:13.556Z,24.53
2018-06-30T08:37:06.651Z,24.68
2018-06-30T08:38:06.681Z,24.90
2018-06-30T08:39:59.620Z,25.17
2018-06-30T08:40:59.628Z,25.21
2018-06-30T08:42:52.568Z,25.13
2018-06-30T08:43:52.575Z,25.06
2018-06-30T08:45:45.497Z,25.28
2018-06-30T08:46:45.524Z,25.15
2018-06-30T08:48:38.466Z,24.90
2018-06-30T08:49:38.471Z,24.99
2018-06-30T08:51:31.392Z,25.05
2018-06-30T08:52:31.418Z,25.13
2018-06-30T08:54:24.362Z,25.35
2018-06-30T08:55:24.421Z,25.42
2018-06-30T08:57:17.286Z,25.32
2018-06-30T08:58:17.313Z,25.38
2018-06-30T09:00:10.256Z,25.43
2018-06-30T09:01:10.265Z,25.38
2018-06-30T09:03:03.200Z,25.18
2018-06-30T09:04:03.213Z,25.15
2018-06-30T09:05:56.130Z,25.28
2018-06-30T09:06:56.158Z,25.21
2018-06-30T09:08:49.099Z,25.30
2018-06-30T09:09:49.107Z,25.40
2018-06-30T09:11:42.024Z,25.54
2018-06-30T09:12:42.054Z,25.60
2018-06-30T09:14:34.992Z,25.30
2018-06-30T09:15:35.001Z,25.33
2018-06-30T09:17:27.923Z,25.36
2018-06-30T09:18:27.951Z,25.38
2018-06-30T09:20:20.928Z,25.40
2018-06-30T09:21:20.898Z,25.33
2018-06-30T09:23:13.820Z,25.32
2018-06-30T09:24:13.871Z,25.21
2018-06-30T09:26:06.988Z,25.40
2018-06-30T09:27:07.001Z,25.52
2018-06-30T09:28:59.933Z,25.70
2018-06-30T09:29:59.945Z,25.75
2018-06-30T09:31:52.885Z,25.94
2018-06-30T09:32:52.912Z,25.94
2018-06-30T09:34:45.885Z,26.30
2018-06-30T09:35:45.887Z,26.30
2018-06-30T09:37:38.809Z,25.88
2018-06-30T09:38:38.836Z,25.85
2018-06-30T09:40:31.793Z,25.94
2018-06-30T09:41:31.808Z,25.94
2018-06-30T09:43:24.722Z,26.09
2018-06-30T09:44:24.762Z,26.06
2018-06-30T09:46:17.700Z,26.01
2018-06-30T09:47:17.747Z,25.98
2018-06-30T09:49:10.634Z,26.12
2018-06-30T09:50:10.662Z,26.12
2018-06-30T09:52:03.613Z,26.13
2018-06-30T09:53:03.615Z,26.07
2018-06-30T09:54:56.580Z,25.99
2018-06-30T09:55:56.583Z,25.99
2018-06-30T09:57:49.509Z,25.91
2018-06-30T09:58:49.536Z,25.80
2018-06-30T10:00:42.486Z,25.85
2018-06-30T10:01:42.486Z,25.65
2018-06-30T10:03:35.413Z,25.77
2018-06-30T10:04:35.437Z,25.80
2018-06-30T10:06:28.415Z,25.67
2018-06-30T10:07:28.426Z,25.64
2018-06-30T10:09:21.344Z,25.80
2018-06-30T10:10:21.371Z,25.80
2018-06-30T10:12:14.311Z,25.98
2018-06-30T10:13:14.318Z,25.85
2018-06-30T10:15:07.245Z,25.92
2018-06-30T10:16:07.274Z,26.02
2018-06-30T10:18:00.212Z,25.87
2018-06-30T10:19:00.235Z,25.79
2018-06-30T10:20:53.205Z,25.90
2018-06-30T10:21:53.165Z,25.90
2018-06-30T10:23:46.103Z,25.82
2018-06-30T10:24:46.116Z,25.73
2018-06-30T10:26:39.056Z,25.57
2018-06-30T10:27:39.064Z,25.65
2018-06-30T10:29:31.988Z,25.75
2018-06-30T10:30:32.013Z,25.70
2018-06-30T10:32:24.954Z,25.76
2018-06-30T10:33:24.961Z,25.90
2018-06-30T10:35:17.878Z,25.99
2018-06-30T10:36:17.906Z,26.09
2018-06-30T10:38:10.850Z,26.30
2018-06-30T10:39:10.862Z,26.21
2018-06-30T10:41:03.776Z,26.28
2018-06-30T10:42:03.809Z,26.21
2018-06-30T10:43:56.747Z,26.26
2018-06-30T10:44:56.757Z,26.29
2018-06-30T10:46:49.703Z,25.99
2018-06-30T10:47:49.713Z,25.97
2018-06-30T10:49:43.119Z,25.90
2018-06-30T10:50:43.148Z,25.82
2018-06-30T10:52:36.091Z,25.65
2018-06-30T10:53:36.099Z,25.69
2018-06-30T10:55:29.070Z,25.62
2018-06-30T10:56:29.049Z,25.79
2018-06-30T10:58:22.018Z,26.07
2018-06-30T10:59:21.999Z,26.10
2018-06-30T11:01:14.941Z,26.23
2018-06-30T11:02:14.948Z,26.29
2018-06-30T11:04:07.908Z,26.28
2018-06-30T11:05:07.943Z,26.33
2018-06-30T11:07:00.867Z,26.47
2018-06-30T11:08:00.864Z,26.28
2018-06-30T11:09:53.786Z,26.26
2018-06-30T11:10:53.818Z,26.25
2018-06-30T11:12:47.851Z,26.18
2018-06-30T11:13:47.763Z,26.18
2018-06-30T11:15:40.685Z,26.09
2018-06-30T11:16:40.716Z,26.05
2018-06-30T11:18:33.662Z,26.09
2018-06-30T11:19:33.671Z,26.10
2018-06-30T11:21:26.775Z,26.12
2018-06-30T11:22:26.824Z,26.10
2018-06-30T11:24:19.744Z,26.17
2018-06-30T11:25:19.750Z,26.21
2018-06-30T11:27:12.676Z,26.33
2018-06-30T11:28:12.705Z,26.35
2018-06-30T11:30:05.652Z,26.55
2018-06-30T11:31:05.655Z,26.57
2018-06-30T11:32:58.603Z,26.63
2018-06-30T11:33:58.677Z,26.63
2018-06-30T11:35:51.536Z,26.73
2018-06-30T11:36:51.552Z,26.81
2018-06-30T11:38:44.491Z,26.77
2018-06-30T11:39:44.501Z,26.73
2018-06-30T11:41:37.420Z,26.73
2018-06-30T11:42:37.450Z,26.73
2018-06-30T11:44:30.389Z,26.94
2018-06-30T11:45:30.399Z,27.04
2018-06-30T11:47:23.317Z,27.25
2018-06-30T11:48:23.344Z,27.32
2018-06-30T11:50:16.288Z,27.31
2018-06-30T11:51:16.296Z,27.44
2018-06-30T11:53:09.215Z,27.39
2018-06-30T11:54:09.249Z,27.32
2018-06-30T11:56:02.190Z,27.34
2018-06-30T11:57:02.196Z,27.21
2018-06-30T11:58:55.137Z,27.10
2018-06-30T11:59:55.144Z,26.94
2018-06-30T12:01:48.074Z,27.00
2018-06-30T12:02:48.097Z,27.07
2018-06-30T12:04:41.040Z,27.13
2018-06-30T12:05:41.047Z,27.21
2018-06-30T12:07:33.975Z,27.27
2018-06-30T12:08:33.999Z,27.21
2018-06-30T12:10:27.142Z,27.25
2018-06-30T12:11:27.153Z,27.39
2018-06-30T12:13:20.076Z,27.04
2018-06-30T12:14:20.105Z,27.02
2018-06-30T12:16:14.039Z,27.03
2018-06-30T12:17:14.053Z,26.88
2018-06-30T12:19:07.000Z,26.85
2018-06-30T12:20:06.999Z,26.88
2018-06-30T12:21:59.922Z,26.95
2018-06-30T12:22:59.951Z,27.00
2018-06-30T12:24:52.891Z,27.10
2018-06-30T12:25:52.909Z,27.06
2018-06-30T12:27:45.821Z,27.02
2018-06-30T12:28:45.850Z,27.00
2018-06-30T12:30:38.790Z,26.97
2018-06-30T12:31:38.798Z,27.09
2018-06-30T12:33:31.757Z,27.24
2018-06-30T12:34:31.771Z,27.24
2018-06-30T12:36:24.712Z,27.09
2018-06-30T12:37:24.723Z,27.19
2018-06-30T12:39:17.670Z,27.25
2018-06-30T12:40:17.673Z,27.18
2018-06-30T12:42:10.623Z,27.09
2018-06-30T12:43:10.624Z,27.06
2018-06-30T12:45:04.125Z,26.99
2018-06-30T12:46:04.069Z,26.97
2018-06-30T12:47:56.993Z,27.06
2018-06-30T12:48:57.019Z,27.03
2018-06-30T12:50:49.962Z,26.87
2018-06-30T12:51:49.973Z,26.65
2018-06-30T12:53:42.891Z,26.91
2018-06-30T12:54:42.985Z,26.97
2018-06-30T12:56:35.861Z,27.07
2018-06-30T12:57:35.872Z,27.03
2018-06-30T12:59:28.793Z,26.88
2018-06-30T13:00:28.825Z,26.91
2018-06-30T13:02:21.764Z,26.95
2018-06-30T13:03:21.795Z,27.00
2018-06-30T13:05:14.722Z,26.99
2018-06-30T13:06:14.723Z,27.02
2018-06-30T13:08:07.648Z,26.91
2018-06-30T13:09:07.743Z,26.81
2018-06-30T13:11:00.615Z,27.02
2018-06-30T13:12:00.628Z,27.12
2018-06-30T13:13:53.552Z,27.13
2018-06-30T13:14:53.620Z,27.10
2018-06-30T13:16:46.523Z,27.17
2018-06-30T13:17:46.585Z,27.24
2018-06-30T13:19:39.448Z,27.27
2018-06-30T13:20:39.479Z,27.22
2018-06-30T13:22:32.419Z,27.02
2018-06-30T13:23:32.427Z,27.09
2018-06-30T13:25:25.377Z,27.25
2018-06-30T13:26:25.380Z,27.28
2018-06-30T13:28:18.306Z,27.18
2018-06-30T13:29:18.342Z,27.21
2018-06-30T13:31:11.335Z,27.12
2018-06-30T13:32:12.399Z,27.25
2018-06-30T13:34:04.213Z,27.37
2018-06-30T13:35:04.247Z,27.44
2018-06-30T13:36:57.189Z,27.40
2018-06-30T13:37:57.192Z,27.28
2018-06-30T13:39:50.120Z,27.39
2018-06-30T13:40:50.165Z,27.24
2018-06-30T13:42:43.096Z,27.18
2018-06-30T13:43:43.106Z,27.29
2018-06-30T13:45:36.026Z,27.27
2018-06-30T13:46:36.054Z,27.21
2018-06-30T13:48:29.018Z,27.29
2018-06-30T13:49:29.009Z,27.22
2018-06-30T13:51:21.958Z,27.27
2018-06-30T13:52:21.964Z,27.28
2018-06-30T13:54:14.892Z,27.24
2018-06-30T13:55:14.920Z,27.12
2018-06-30T13:57:07.878Z,26.91
2018-06-30T13:58:07.869Z,26.91
2018-06-30T14:00:02.014Z,26.89
2018-06-30T14:01:02.046Z,26.85
2018-06-30T14:02:54.984Z,26.92
2018-06-30T14:03:55.039Z,26.91
2018-06-30T14:05:47.913Z,27.04
2018-06-30T14:06:47.942Z,27.06
2018-06-30T14:08:40.909Z,27.31
2018-06-30T14:09:40.891Z,27.39
2018-06-30T14:11:33.822Z,27.34
2018-06-30T14:12:33.850Z,27.29
2018-06-30T14:14:26.805Z,27.43
2018-06-30T14:15:26.798Z,27.39
2018-06-30T14:17:19.808Z,27.36
2018-06-30T14:18:19.885Z,27.39
2018-06-30T14:20:12.671Z,27.54
2018-06-30T14:21:12.701Z,27.50
2018-06-30T14:23:05.733Z,27.66
2018-06-30T14:24:05.699Z,27.60
2018-06-30T14:25:58.574Z,27.43
2018-06-30T14:26:58.603Z,27.24
2018-06-30T14:28:51.551Z,27.13
2018-06-30T14:29:51.551Z,27.18
2018-06-30T14:31:44.474Z,27.25
2018-06-30T14:32:44.500Z,27.31
2018-06-30T14:34:37.442Z,27.32
2018-06-30T14:35:37.505Z,27.37
2018-06-30T14:37:30.393Z,27.50
2018-06-30T14:38:30.401Z,27.57
2018-06-30T14:40:23.324Z,27.55
2018-06-30T14:41:23.353Z,27.50
2018-06-30T14:43:16.296Z,27.59
2018-06-30T14:44:16.302Z,27.57
2018-06-30T14:46:09.229Z,27.36
2018-06-30T14:47:09.252Z,27.28
2018-06-30T14:49:02.196Z,27.39
2018-06-30T14:50:02.251Z,27.28
2018-06-30T14:51:55.124Z,27.39
2018-06-30T14:52:55.152Z,27.39
2018-06-30T14:54:48.152Z,27.41
2018-06-30T14:55:48.104Z,27.40
2018-06-30T14:57:41.028Z,27.47
2018-06-30T14:58:41.053Z,27.55
2018-06-30T15:00:33.996Z,27.54
2018-06-30T15:01:34.004Z,27.50
2018-06-30T15:03:26.949Z,27.47
2018-06-30T15:04:26.955Z,27.41
2018-06-30T15:06:20.369Z,27.37
2018-06-30T15:07:20.401Z,27.29
2018-06-30T15:09:13.369Z,27.17
2018-06-30T15:10:13.382Z,27.25
2018-06-30T15:12:06.303Z,27.21
2018-06-30T15:13:06.335Z,27.24
2018-06-30T15:14:59.278Z,27.18
2018-06-30T15:15:59.285Z,27.19
2018-06-30T15:17:52.213Z,27.14
2018-06-30T15:18:52.289Z,27.07
2018-06-30T15:20:45.187Z,27.25
2018-06-30T15:21:45.192Z,27.41
2018-06-30T15:23:38.131Z,27.44
2018-06-30T15:24:38.185Z,27.51
2018-06-30T15:26:31.082Z,27.62
2018-06-30T15:27:31.090Z,27.54
2018-06-30T15:29:24.045Z,27.36
2018-06-30T15:30:24.053Z,27.31
2018-06-30T15:32:16.979Z,27.39
2018-06-30T15:33:17.004Z,27.34
2018-06-30T15:35:09.953Z,27.24
2018-06-30T15:36:10.054Z,27.25
2018-06-30T15:38:02.888Z,27.13
2018-06-30T15:39:02.912Z,27.14
2018-06-30T15:40:55.866Z,27.17
2018-06-30T15:41:55.868Z,27.25
2018-06-30T15:43:48.800Z,27.07
2018-06-30T15:44:48.823Z,27.00
2018-06-30T15:46:41.772Z,27.02
2018-06-30T15:47:41.776Z,27.07
2018-06-30T15:49:34.727Z,27.22
2018-06-30T15:50:34.736Z,27.19
2018-06-30T15:52:27.659Z,27.02
2018-06-30T15:53:27.688Z,27.12
2018-06-30T15:55:20.641Z,27.06
2018-06-30T15:56:20.647Z,27.06
2018-06-30T15:58:13.568Z,26.82
2018-06-30T15:59:13.651Z,26.97
2018-06-30T16:01:06.538Z,27.07
2018-06-30T16:02:06.544Z,27.13
2018-06-30T16:03:59.476Z,27.28
2018-06-30T16:04:59.501Z,27.37
2018-06-30T16:06:52.455Z,27.37
2018-06-30T16:07:52.456Z,27.25
2018-06-30T16:09:45.421Z,27.18
2018-06-30T16:10:45.412Z,27.25
2018-06-30T16:12:38.363Z,27.27
2018-06-30T16:13:38.363Z,27.27
2018-06-30T16:15:31.314Z,27.34
2018-06-30T16:16:31.395Z,27.32
2018-06-30T16:18:24.251Z,27.34
2018-06-30T16:19:24.278Z,27.31
2018-06-30T16:21:17.226Z,27.40
2018-06-30T16:22:17.231Z,27.31
2018-06-30T16:24:10.189Z,27.28
2018-06-30T16:25:10.220Z,27.40
2018-06-30T16:27:03.653Z,27.49
2018-06-30T16:28:03.665Z,27.54
2018-06-30T16:29:56.592Z,27.59
2018-06-30T16:30:56.623Z,27.59
2018-06-30T16:32:49.576Z,27.59
2018-06-30T16:33:49.584Z,27.62
2018-06-30T16:35:43.058Z,27.62
2018-06-30T16:36:42.539Z,27.39
2018-06-30T16:38:35.980Z,27.09
2018-06-30T16:39:35.990Z,26.95
2018-06-30T16:41:28.938Z,26.89
2018-06-30T16:42:28.944Z,26.95
2018-06-30T16:44:21.869Z,26.91
2018-06-30T16:45:21.897Z,26.88
2018-06-30T16:47:14.840Z,26.88
2018-06-30T16:48:14.851Z,26.88
2018-06-30T16:50:07.775Z,26.81
2018-06-30T16:51:07.803Z,26.85
2018-06-30T16:53:00.750Z,26.63
2018-06-30T16:54:00.759Z,26.63
2018-06-30T16:55:53.683Z,26.58
2018-06-30T16:56:53.712Z,26.75
2018-06-30T16:58:46.675Z,26.60
2018-06-30T16:59:47.185Z,26.73
2018-06-30T17:01:40.106Z,26.73
2018-06-30T17:02:40.116Z,26.85
2018-06-30T17:04:33.040Z,26.72
2018-06-30T17:05:33.069Z,26.73
2018-06-30T17:07:26.044Z,26.66
2018-06-30T17:08:26.031Z,26.58
2018-06-30T17:10:18.955Z,26.35
2018-06-30T17:11:18.984Z,26.21
2018-06-30T17:13:11.989Z,26.40
2018-06-30T17:14:12.001Z,26.52
2018-06-30T17:16:05.561Z,26.62
2018-06-30T17:17:05.590Z,26.62
2018-06-30T17:19:03.532Z,26.73
2018-06-30T17:20:03.612Z,26.63
2018-06-30T17:21:56.965Z,26.66
2018-06-30T17:22:57.045Z,26.63
2018-06-30T17:24:49.979Z,26.39
2018-06-30T17:25:49.985Z,26.32
2018-06-30T17:27:43.132Z,26.45
2018-06-30T17:28:42.943Z,26.47
2018-06-30T17:30:37.593Z,26.36
2018-06-30T17:31:37.519Z,26.39
2018-06-30T17:33:32.007Z,26.23
2018-06-30T17:34:32.400Z,26.09
2018-06-30T17:36:25.152Z,25.97
2018-06-30T17:37:25.065Z,25.94
2018-06-30T17:39:18.098Z,25.95
2018-06-30T17:40:18.107Z,25.99
2018-06-30T17:42:11.145Z,26.07
2018-06-30T17:43:11.166Z,26.13
2018-06-30T17:45:05.928Z,26.45
2018-06-30T17:46:05.888Z,26.54
2018-06-30T17:47:59.049Z,26.76
2018-06-30T17:48:59.049Z,26.76
2018-06-30T17:50:52.045Z,26.63
2018-06-30T17:51:52.344Z,26.58
2018-06-30T17:53:45.180Z,26.60
2018-06-30T17:54:45.297Z,26.76
2018-06-30T17:56:38.694Z,26.97
2018-06-30T17:57:38.729Z,27.12
2018-06-30T17:59:31.756Z,27.24
2018-06-30T18:00:31.766Z,27.29
2018-06-30T18:02:25.297Z,27.36
2018-06-30T18:03:25.432Z,27.47
2018-06-30T18:05:18.542Z,27.67
2018-06-30T18:06:18.446Z,27.87
2018-06-30T18:08:11.526Z,28.25
2018-06-30T18:09:11.440Z,28.48
2018-06-30T18:11:04.706Z,28.33
2018-06-30T18:12:04.774Z,28.25
2018-06-30T18:13:57.780Z,27.82
2018-06-30T18:14:57.948Z,27.75
2018-06-30T18:16:55.037Z,27.41
2018-06-30T18:17:55.027Z,27.39
2018-06-30T18:19:48.054Z,27.17
2018-06-30T18:20:48.066Z,27.22
2018-06-30T18:22:41.151Z,27.12
2018-06-30T18:23:41.232Z,27.06
2018-06-30T18:25:34.242Z,27.07
2018-06-30T18:26:34.328Z,27.07
2018-06-30T18:28:28.213Z,27.44
2018-06-30T18:29:27.651Z,27.24
2018-06-30T18:31:22.004Z,27.25
2018-06-30T18:32:22.037Z,27.37
2018-06-30T18:34:15.140Z,27.51